Pintada, New Mexico
Current Conditions -  °F | °C
As of 10:53 PM on Tuesday 25 Nov 2014 (Local Time) from KCQC Reporting Station
Clear Clear  
Wind Chill: 26°   Ceiling: Unl
Heat Index: 32°   Visibility: 10mi
Dew Point: 11°   Wind: 6mph
Humidity: 42%   Direction: 310°NW
Pressure: 30.21"   Gusts: NA
Location:  34.8581°N, 104.704°W
Report Text: KCQC 260553Z AUTO 31005KT 10SM CLR 00/M12 A3021 RMK AO2 SLP232 T00001117 10022 21011 51008
Loading
Personal Weather Stations






























Interactive Weather Map New forecast layout! Learn more

10-Day Weather Forecast

Advertisements
Track Severe Weather on mobile